Time;durP1;ratioP1;P1;durP2;ratioP2;P2;SDS_P1;SDS_P2;PMS_P1;PMS_P2;Temp;Humidity;BMP_temperature;BMP_pressure;BME280_temperature;BME280_humidity;BME280_pressure;Samples;Min_cycle;Max_cycle;Signal;HPM_P1;HPM_P2
2021/09/30 00:02:21;;;;;;;12.75;5.45;;;;;;;;;;5033068;28;20202;-58
2021/09/30 00:04:48;;;;;;;5.20;4.70;;;;;;;;;;5033069;28;20732;-57
2021/09/30 00:07:15;;;;;;;5.78;5.10;;;;;;;;;;5033051;28;20268;-57
2021/09/30 00:09:45;;;;;;;5.55;4.38;;;;;;;;;;5033368;28;20272;-57
2021/09/30 00:12:16;;;;;;;4.57;4.07;;;;;;;;;;5032906;28;20226;-57
2021/09/30 00:14:49;;;;;;;5.97;3.60;;;;;;;;;;5033263;28;20186;-57
2021/09/30 00:17:30;;;;;;;4.13;3.30;;;;;;;;;;5033162;28;20190;-57
2021/09/30 00:33:52;;;;;;;4.45;3.00;;;;;;;;;;5017535;28;20210;-60
2021/09/30 00:41:58;;;;;;;4.03;2.90;;;;;;;;;;4994037;28;20198;-60
2021/09/30 00:47:36;;;;;;;3.75;2.72;;;;;;;;;;4995104;28;20230;-59
2021/09/30 00:50:11;;;;;;;4.57;2.47;;;;;;;;;;5017155;28;20269;-59
2021/09/30 00:52:45;;;;;;;3.78;2.80;;;;;;;;;;5017062;28;20210;-60
2021/09/30 02:58:38;;;;;;;3.63;2.50;;;;;;;;;;5131088;28;20220;-60
2021/09/30 03:01:08;;;;;;;4.15;2.60;;;;;;;;;;5131401;28;20199;-61
2021/09/30 03:03:37;;;;;;;6.38;2.72;;;;;;;;;;5131342;28;20226;-61
2021/09/30 03:06:06;;;;;;;3.67;2.53;;;;;;;;;;5131483;28;20199;-61
2021/09/30 03:08:36;;;;;;;5.75;2.60;;;;;;;;;;5131780;28;20211;-59
2021/09/30 03:11:04;;;;;;;6.45;2.70;;;;;;;;;;5152691;28;20245;-61
2021/09/30 03:13:32;;;;;;;6.85;2.45;;;;;;;;;;5154937;28;20228;-60
2021/09/30 03:16:04;;;;;;;6.32;2.67;;;;;;;;;;5152998;28;20198;-61
2021/09/30 03:18:48;;;;;;;3.88;2.70;;;;;;;;;;5133696;28;20191;-60
2021/09/30 03:24:16;;;;;;;10.23;2.63;;;;;;;;;;5068913;28;20220;-60
2021/09/30 03:26:44;;;;;;;6.97;2.88;;;;;;;;;;5067990;28;20236;-60
2021/09/30 03:29:12;;;;;;;2.88;2.30;;;;;;;;;;5096303;27;20586;-60
2021/09/30 03:31:41;;;;;;;5.82;3.25;;;;;;;;;;5130827;28;20248;-60
2021/09/30 03:34:09;;;;;;;4.38;2.80;;;;;;;;;;5131073;28;20199;-61
2021/09/30 03:36:36;;;;;;;4.35;2.90;;;;;;;;;;5117273;28;20200;-60
2021/09/30 03:39:04;;;;;;;3.58;3.25;;;;;;;;;;5117329;28;20216;-60
2021/09/30 03:41:31;;;;;;;4.25;3.45;;;;;;;;;;5117968;28;20211;-60
2021/09/30 03:43:58;;;;;;;5.32;3.42;;;;;;;;;;5118111;28;20220;-61
2021/09/30 03:46:27;;;;;;;4.07;3.72;;;;;;;;;;5118306;28;20204;-60
2021/09/30 03:48:56;;;;;;;5.90;3.15;;;;;;;;;;5118824;28;20242;-60
2021/09/30 03:51:33;;;;;;;3.47;3.17;;;;;;;;;;5121972;28;20225;-59
2021/09/30 03:54:12;;;;;;;6.85;3.65;;;;;;;;;;5122724;28;20179;-61
2021/09/30 03:56:51;;;;;;;5.10;3.58;;;;;;;;;;5123753;28;20187;-60
2021/09/30 03:59:20;;;;;;;4.35;3.03;;;;;;;;;;5124379;28;20223;-61
2021/09/30 04:01:54;;;;;;;4.50;3.38;;;;;;;;;;5125154;28;20195;-60
2021/09/30 04:04:25;;;;;;;4.07;3.65;;;;;;;;;;5125812;28;20200;-60
2021/09/30 04:08:38;;;;;;;4.72;3.65;;;;;;;;;;5097039;27;20619;-60
2021/09/30 04:11:05;;;;;;;4.15;3.22;;;;;;;;;;5093418;28;20295;-60
2021/09/30 04:13:32;;;;;;;3.65;3.35;;;;;;;;;;5094742;28;20254;-60
2021/09/30 04:16:00;;;;;;;3.83;3.53;;;;;;;;;;5092028;28;20741;-60
2021/09/30 04:18:28;;;;;;;4.30;3.90;;;;;;;;;;5092175;28;20197;-60
2021/09/30 04:20:55;;;;;;;4.68;4.10;;;;;;;;;;5091709;28;20220;-59
2021/09/30 04:23:23;;;;;;;4.28;3.88;;;;;;;;;;5092768;28;20237;-60
2021/09/30 04:25:51;;;;;;;7.88;4.60;;;;;;;;;;5092477;28;20200;-60
2021/09/30 04:28:19;;;;;;;6.32;4.10;;;;;;;;;;5092360;28;20220;-60
2021/09/30 04:30:46;;;;;;;5.90;4.07;;;;;;;;;;5090838;28;20602;-58
2021/09/30 04:33:14;;;;;;;5.30;4.82;;;;;;;;;;5090985;28;20204;-57
2021/09/30 04:35:41;;;;;;;4.65;4.25;;;;;;;;;;5091008;28;20200;-60
2021/09/30 04:38:09;;;;;;;6.57;4.10;;;;;;;;;;5090963;28;20262;-60
2021/09/30 04:40:36;;;;;;;5.85;4.50;;;;;;;;;;5091430;28;20239;-60
2021/09/30 04:43:05;;;;;;;6.00;4.55;;;;;;;;;;5091081;28;20230;-60
2021/09/30 04:45:32;;;;;;;5.35;4.30;;;;;;;;;;5090456;28;20671;-60
2021/09/30 04:48:00;;;;;;;4.70;4.30;;;;;;;;;;5090812;28;20273;-60
2021/09/30 04:50:27;;;;;;;6.20;4.13;;;;;;;;;;5090529;28;20224;-60
2021/09/30 04:53:01;;;;;;;4.90;4.45;;;;;;;;;;5090713;28;20208;-61
2021/09/30 04:55:29;;;;;;;6.60;4.60;;;;;;;;;;5090594;28;20195;-61
2021/09/30 04:57:56;;;;;;;4.70;4.05;;;;;;;;;;5090207;28;20196;-59
2021/09/30 05:00:25;;;;;;;5.53;4.47;;;;;;;;;;5090052;28;20274;-59
2021/09/30 05:02:52;;;;;;;5.57;5.07;;;;;;;;;;5089890;28;20201;-59
2021/09/30 05:05:20;;;;;;;6.65;4.15;;;;;;;;;;5090155;28;20212;-60
2021/09/30 05:07:47;;;;;;;5.30;4.78;;;;;;;;;;5089871;28;20220;-61
2021/09/30 05:10:19;;;;;;;7.90;4.80;;;;;;;;;;5090056;28;20221;-60
2021/09/30 05:12:46;;;;;;;7.20;4.50;;;;;;;;;;5090052;28;20228;-58
2021/09/30 05:15:14;;;;;;;7.15;4.72;;;;;;;;;;5091132;28;20211;-59
2021/09/30 05:17:42;;;;;;;7.60;5.32;;;;;;;;;;5089964;28;20291;-59
2021/09/30 05:20:10;;;;;;;7.68;4.90;;;;;;;;;;5076642;28;20231;-61
2021/09/30 05:22:37;;;;;;;5.90;5.28;;;;;;;;;;5076575;28;20279;-60
2021/09/30 05:25:05;;;;;;;8.35;5.00;;;;;;;;;;5076332;28;20205;-61
2021/09/30 05:27:32;;;;;;;5.85;5.35;;;;;;;;;;5076466;28;20630;-63
2021/09/30 05:30:00;;;;;;;4.93;4.40;;;;;;;;;;5084712;28;20236;-61
2021/09/30 05:32:27;;;;;;;6.25;4.78;;;;;;;;;;5081640;28;20205;-61
2021/09/30 05:34:55;;;;;;;6.20;5.60;;;;;;;;;;5079381;28;20259;-61
2021/09/30 05:37:23;;;;;;;6.70;5.60;;;;;;;;;;5091467;28;20212;-60
2021/09/30 05:39:50;;;;;;;5.50;5.00;;;;;;;;;;5087363;28;20629;-61
2021/09/30 05:42:18;;;;;;;7.40;5.80;;;;;;;;;;5083962;28;20227;-60
2021/09/30 05:44:45;;;;;;;9.93;6.80;;;;;;;;;;5082687;28;20200;-58
2021/09/30 05:47:13;;;;;;;8.02;5.25;;;;;;;;;;5083040;28;20246;-61
2021/09/30 05:49:41;;;;;;;11.90;6.45;;;;;;;;;;5078169;28;20221;-60
2021/09/30 05:52:09;;;;;;;8.27;6.07;;;;;;;;;;5075678;28;20248;-61
2021/09/30 05:54:37;;;;;;;7.30;5.97;;;;;;;;;;5076545;28;20574;-60
2021/09/30 05:57:04;;;;;;;7.13;6.38;;;;;;;;;;5076075;28;20197;-58
2021/09/30 05:59:31;;;;;;;12.25;6.90;;;;;;;;;;5076143;28;20712;-60
2021/09/30 06:12:56;;;;;;;8.32;7.47;;;;;;;;;;5076068;28;20267;-61
2021/09/30 06:15:28;;;;;;;7.43;6.72;;;;;;;;;;5075623;28;20193;-60
2021/09/30 06:17:57;;;;;;;10.50;6.63;;;;;;;;;;5076223;28;20235;-60
2021/09/30 06:20:24;;;;;;;7.90;7.10;;;;;;;;;;5076057;28;20221;-59
2021/09/30 06:22:52;;;;;;;10.30;7.18;;;;;;;;;;5081843;28;20201;-62
2021/09/30 06:25:20;;;;;;;8.60;7.60;;;;;;;;;;5094190;28;20291;-60
2021/09/30 06:27:47;;;;;;;8.27;7.40;;;;;;;;;;5090247;28;20216;-61
2021/09/30 06:30:15;;;;;;;7.38;5.70;;;;;;;;;;5080556;28;20221;-60
2021/09/30 06:32:42;;;;;;;10.05;6.55;;;;;;;;;;5076824;28;20661;-59
2021/09/30 06:35:10;;;;;;;8.02;6.20;;;;;;;;;;5075636;28;20677;-59
2021/09/30 06:37:37;;;;;;;9.05;6.03;;;;;;;;;;5075456;28;20197;-59
2021/09/30 06:40:07;;;;;;;7.43;6.70;;;;;;;;;;5076127;28;20228;-59
2021/09/30 06:42:34;;;;;;;6.20;5.63;;;;;;;;;;5075732;28;20204;-58
2021/09/30 06:45:01;;;;;;;8.55;5.85;;;;;;;;;;5075063;28;20293;-59
2021/09/30 06:47:30;;;;;;;6.65;6.00;;;;;;;;;;5074586;28;20217;-60
2021/09/30 06:49:57;;;;;;;6.65;5.32;;;;;;;;;;5074607;28;20311;-61
2021/09/30 06:52:24;;;;;;;7.78;6.20;;;;;;;;;;5075191;28;20208;-61
2021/09/30 06:54:51;;;;;;;8.20;5.33;;;;;;;;;;5075199;28;20205;-60
2021/09/30 06:57:21;;;;;;;6.33;5.20;;;;;;;;;;5078100;28;20849;-60
2021/09/30 06:59:48;;;;;;;8.00;5.40;;;;;;;;;;5078486;28;20474;-60
2021/09/30 07:02:18;;;;;;;7.93;5.15;;;;;;;;;;5082195;28;20954;-60
2021/09/30 07:04:45;;;;;;;10.77;5.43;;;;;;;;;;5074513;28;20201;-61
2021/09/30 07:07:12;;;;;;;9.37;5.90;;;;;;;;;;5074112;28;20213;-60
2021/09/30 07:09:40;;;;;;;6.78;5.15;;;;;;;;;;5074484;28;20975;-60
2021/09/30 07:12:07;;;;;;;7.30;5.50;;;;;;;;;;5074773;28;20251;-59
2021/09/30 07:14:36;;;;;;;6.67;5.03;;;;;;;;;;5074069;28;20913;-61
2021/09/30 07:17:03;;;;;;;7.73;5.57;;;;;;;;;;5074633;28;20443;-61
2021/09/30 07:19:32;;;;;;;6.47;5.80;;;;;;;;;;5074041;28;20471;-61
2021/09/30 07:22:00;;;;;;;8.23;5.97;;;;;;;;;;5074355;28;20501;-59
2021/09/30 07:24:27;;;;;;;7.10;6.10;;;;;;;;;;5073919;28;20448;-61
2021/09/30 07:26:54;;;;;;;6.07;5.50;;;;;;;;;;5074045;28;20600;-60
2021/09/30 07:29:21;;;;;;;8.40;6.10;;;;;;;;;;5073747;28;20533;-61
2021/09/30 07:31:50;;;;;;;7.87;6.23;;;;;;;;;;5074009;28;20435;-60
2021/09/30 07:34:17;;;;;;;9.60;6.30;;;;;;;;;;5074011;28;20450;-60
2021/09/30 07:36:45;;;;;;;10.80;6.67;;;;;;;;;;5080493;28;20455;-60
2021/09/30 07:39:15;;;;;;;8.37;6.70;;;;;;;;;;5083287;28;20482;-59
2021/09/30 07:41:43;;;;;;;7.57;6.97;;;;;;;;;;5074961;28;20518;-60
2021/09/30 07:44:10;;;;;;;13.67;6.60;;;;;;;;;;5074548;28;20523;-60
2021/09/30 07:46:40;;;;;;;9.50;7.70;;;;;;;;;;5074146;28;20447;-59
2021/09/30 07:49:09;;;;;;;9.80;6.37;;;;;;;;;;5073707;28;20551;-60
2021/09/30 07:51:37;;;;;;;7.10;6.40;;;;;;;;;;5073429;28;20554;-60
2021/09/30 07:54:05;;;;;;;8.10;6.20;;;;;;;;;;5073763;28;20439;-60
2021/09/30 07:56:33;;;;;;;8.13;6.80;;;;;;;;;;5073800;28;20443;-60
2021/09/30 07:59:00;;;;;;;13.40;6.87;;;;;;;;;;5073447;28;20463;-60
2021/09/30 08:01:27;;;;;;;9.67;5.80;;;;;;;;;;5073409;28;20447;-61
2021/09/30 08:03:57;;;;;;;8.13;5.93;;;;;;;;;;5078513;28;20439;-61
2021/09/30 08:06:26;;;;;;;6.80;6.20;;;;;;;;;;5078645;28;20448;-60
2021/09/30 08:08:53;;;;;;;7.17;5.10;;;;;;;;;;5075663;28;20490;-60
2021/09/30 08:11:20;;;;;;;10.30;5.23;;;;;;;;;;5074503;28;20993;-61
2021/09/30 08:13:48;;;;;;;5.30;4.80;;;;;;;;;;5075937;28;20443;-56
2021/09/30 08:16:18;;;;;;;7.10;4.80;;;;;;;;;;5077144;28;20451;-60
2021/09/30 08:18:45;;;;;;;7.10;4.60;;;;;;;;;;5075766;28;20428;-61
2021/09/30 08:21:13;;;;;;;7.93;4.13;;;;;;;;;;5075765;28;20525;-57
2021/09/30 08:23:42;;;;;;;6.10;4.60;;;;;;;;;;5077319;28;20483;-59
2021/09/30 08:26:09;;;;;;;6.77;4.47;;;;;;;;;;5077403;28;20443;-60
2021/09/30 08:28:36;;;;;;;8.43;4.50;;;;;;;;;;5079555;28;20528;-60
2021/09/30 08:31:04;;;;;;;8.43;4.10;;;;;;;;;;5079414;28;20497;-59
2021/09/30 08:33:32;;;;;;;6.10;4.40;;;;;;;;;;5078277;28;20500;-60
2021/09/30 08:36:00;;;;;;;6.73;3.03;;;;;;;;;;5079299;28;20447;-61
2021/09/30 08:38:27;;;;;;;6.40;3.83;;;;;;;;;;5075430;22;20579;-57
2021/09/30 08:40:56;;;;;;;8.17;3.67;;;;;;;;;;5032614;28;20503;-56
2021/09/30 08:43:23;;;;;;;6.60;3.10;;;;;;;;;;5032853;28;20445;-57
2021/09/30 08:45:50;;;;;;;6.53;2.90;;;;;;;;;;5032397;28;20445;-56
2021/09/30 08:48:17;;;;;;;3.53;3.20;;;;;;;;;;5032320;28;20527;-56
2021/09/30 08:50:45;;;;;;;8.87;3.20;;;;;;;;;;5032258;28;20449;-57
2021/09/30 08:53:13;;;;;;;7.73;3.40;;;;;;;;;;5033628;28;20453;-58
2021/09/30 08:55:41;;;;;;;9.63;3.40;;;;;;;;;;5036103;28;21006;-57
2021/09/30 08:58:10;;;;;;;7.60;3.20;;;;;;;;;;5036283;28;20872;-56
2021/09/30 09:00:38;;;;;;;6.20;3.10;;;;;;;;;;5036397;28;20441;-58
2021/09/30 09:03:06;;;;;;;5.60;2.97;;;;;;;;;;5036045;28;20502;-57
2021/09/30 09:05:33;;;;;;;8.57;4.47;;;;;;;;;;5036156;28;20499;-57
2021/09/30 09:08:01;;;;;;;8.53;3.87;;;;;;;;;;5036237;28;20627;-57
2021/09/30 09:10:29;;;;;;;8.23;3.50;;;;;;;;;;5036683;28;20449;-57
2021/09/30 09:13:04;;;;;;;6.33;3.30;;;;;;;;;;5036357;28;20449;-56
2021/09/30 09:15:43;;;;;;;7.43;3.00;;;;;;;;;;5036178;28;20853;-56
2021/09/30 09:18:14;;;;;;;8.37;2.63;;;;;;;;;;5035820;28;20968;-58
2021/09/30 09:20:41;;;;;;;7.23;3.00;;;;;;;;;;5036024;28;20449;-58
2021/09/30 09:23:10;;;;;;;3.17;2.50;;;;;;;;;;5035805;28;20885;-57
2021/09/30 09:25:37;;;;;;;6.20;3.20;;;;;;;;;;5035949;28;20524;-57
2021/09/30 09:28:05;;;;;;;8.57;3.20;;;;;;;;;;5036049;28;20460;-58
2021/09/30 09:30:34;;;;;;;5.80;2.27;;;;;;;;;;5035379;28;20453;-58
2021/09/30 09:33:05;;;;;;;8.20;2.97;;;;;;;;;;5035441;28;20797;-57
2021/09/30 09:35:45;;;;;;;5.77;2.47;;;;;;;;;;5035563;28;20430;-57
2021/09/30 09:38:13;;;;;;;4.47;1.93;;;;;;;;;;5035177;28;20476;-57
2021/09/30 09:40:40;;;;;;;6.80;2.60;;;;;;;;;;5035806;28;20503;-57
2021/09/30 09:43:22;;;;;;;11.87;2.70;;;;;;;;;;5035544;28;20453;-57
2021/09/30 09:45:49;;;;;;;4.53;2.33;;;;;;;;;;5034983;28;20449;-58
2021/09/30 09:48:18;;;;;;;5.43;2.43;;;;;;;;;;5035215;28;20535;-58
2021/09/30 09:50:45;;;;;;;5.27;2.30;;;;;;;;;;5035156;28;20522;-58
2021/09/30 09:53:12;;;;;;;4.37;2.23;;;;;;;;;;5035588;28;20514;-58
2021/09/30 09:55:41;;;;;;;4.00;1.70;;;;;;;;;;5035105;28;20503;-58
2021/09/30 09:58:10;;;;;;;8.33;2.07;;;;;;;;;;5034709;28;20457;-58
2021/09/30 10:00:39;;;;;;;4.83;1.93;;;;;;;;;;5035045;28;20449;-58
2021/09/30 10:03:14;;;;;;;5.00;2.30;;;;;;;;;;5034899;28;20460;-57
2021/09/30 10:05:43;;;;;;;6.13;1.70;;;;;;;;;;5034786;28;20512;-58
2021/09/30 10:08:11;;;;;;;5.00;1.80;;;;;;;;;;5034840;28;20460;-58
2021/09/30 10:10:39;;;;;;;5.27;1.80;;;;;;;;;;5035156;28;20441;-57
2021/09/30 10:13:07;;;;;;;4.67;1.70;;;;;;;;;;5034893;28;20453;-57
2021/09/30 10:15:35;;;;;;;7.10;1.97;;;;;;;;;;5035140;28;20521;-57
2021/09/30 10:18:03;;;;;;;4.30;2.10;;;;;;;;;;5034403;28;20531;-57
2021/09/30 10:20:31;;;;;;;5.43;2.33;;;;;;;;;;5034377;28;20449;-58
2021/09/30 10:23:02;;;;;;;6.53;2.10;;;;;;;;;;5034672;28;20518;-58
2021/09/30 10:25:34;;;;;;;5.47;1.70;;;;;;;;;;5034724;28;20437;-57
2021/09/30 10:28:02;;;;;;;4.10;1.80;;;;;;;;;;5034683;28;20468;-57
2021/09/30 10:30:32;;;;;;;3.87;1.87;;;;;;;;;;5034945;28;20574;-57
2021/09/30 10:33:00;;;;;;;6.50;1.90;;;;;;;;;;5034458;28;20449;-58
2021/09/30 10:35:35;;;;;;;5.60;1.50;;;;;;;;;;5034283;28;20852;-58
2021/09/30 10:38:20;;;;;;;6.07;1.77;;;;;;;;;;5034191;28;20476;-57
2021/09/30 10:41:20;;;;;;;2.83;1.50;;;;;;;;;;5034166;28;20557;-58
2021/09/30 10:43:48;;;;;;;6.27;1.60;;;;;;;;;;4972801;28;20986;-57
2021/09/30 10:46:34;;;;;;;3.23;1.40;;;;;;;;;;4972921;28;20455;-58
2021/09/30 10:49:01;;;;;;;5.40;1.90;;;;;;;;;;5008311;28;20563;-57
2021/09/30 10:51:28;;;;;;;3.90;1.77;;;;;;;;;;5033951;28;20457;-58
2021/09/30 10:54:00;;;;;;;5.90;2.00;;;;;;;;;;5033578;28;20464;-57
2021/09/30 10:56:37;;;;;;;3.70;1.53;;;;;;;;;;5033801;28;20498;-57
2021/09/30 10:59:30;;;;;;;4.83;1.83;;;;;;;;;;5033900;28;20496;-57
2021/09/30 11:02:03;;;;;;;3.27;1.60;;;;;;;;;;5033594;28;20523;-57
2021/09/30 11:04:51;;;;;;;5.57;1.73;;;;;;;;;;5033756;28;20507;-57
2021/09/30 11:07:18;;;;;;;5.57;1.60;;;;;;;;;;5033312;28;20453;-57
2021/09/30 11:10:12;;;;;;;4.20;1.33;;;;;;;;;;5033727;28;20853;-57
2021/09/30 11:12:39;;;;;;;6.80;2.20;;;;;;;;;;5033736;28;20495;-58
2021/09/30 11:15:07;;;;;;;2.23;1.20;;;;;;;;;;5033754;28;20437;-58
2021/09/30 11:17:35;;;;;;;3.60;2.07;;;;;;;;;;5032810;28;20465;-57
2021/09/30 11:20:17;;;;;;;5.13;2.00;;;;;;;;;;5034296;28;20477;-57
2021/09/30 11:22:44;;;;;;;9.40;2.83;;;;;;;;;;5033366;28;20791;-57
2021/09/30 11:25:13;;;;;;;7.03;2.53;;;;;;;;;;5033267;28;20437;-58
2021/09/30 11:27:40;;;;;;;7.37;2.07;;;;;;;;;;5033087;28;20519;-57
2021/09/30 11:30:31;;;;;;;2.63;1.23;;;;;;;;;;5033039;28;20485;-58
2021/09/30 11:32:59;;;;;;;6.00;1.70;;;;;;;;;;5018177;28;20461;-57
2021/09/30 11:35:27;;;;;;;4.53;1.40;;;;;;;;;;5033332;28;20445;-57
2021/09/30 11:37:54;;;;;;;6.23;1.67;;;;;;;;;;5033038;28;20477;-57
2021/09/30 11:40:23;;;;;;;2.17;1.33;;;;;;;;;;5033431;28;20437;-57
2021/09/30 11:42:52;;;;;;;2.40;1.30;;;;;;;;;;5033325;28;20445;-57
2021/09/30 11:45:21;;;;;;;3.77;1.47;;;;;;;;;;5033058;28;20962;-57
2021/09/30 11:47:49;;;;;;;5.40;1.47;;;;;;;;;;5033538;28;20465;-57
2021/09/30 11:50:21;;;;;;;4.73;1.60;;;;;;;;;;5033330;28;20499;-57
2021/09/30 11:52:56;;;;;;;5.43;2.07;;;;;;;;;;5033067;28;20967;-58
2021/09/30 11:55:27;;;;;;;4.60;2.30;;;;;;;;;;5032994;28;20429;-59
2021/09/30 11:57:55;;;;;;;3.90;1.63;;;;;;;;;;5033452;28;20476;-57
2021/09/30 12:00:23;;;;;;;4.10;1.80;;;;;;;;;;5033169;28;20491;-57
2021/09/30 12:02:58;;;;;;;7.00;1.70;;;;;;;;;;5033058;28;20461;-57
2021/09/30 12:05:28;;;;;;;3.50;1.73;;;;;;;;;;5032928;28;20452;-57
2021/09/30 12:07:58;;;;;;;4.23;1.53;;;;;;;;;;5032836;28;20492;-60
2021/09/30 12:10:26;;;;;;;3.97;1.73;;;;;;;;;;5032965;28;20527;-57
2021/09/30 12:12:54;;;;;;;4.23;1.47;;;;;;;;;;5032479;28;20449;-57
2021/09/30 12:15:21;;;;;;;3.60;2.23;;;;;;;;;;5033000;28;20449;-57
2021/09/30 12:17:48;;;;;;;10.20;2.47;;;;;;;;;;5032723;28;20472;-58
2021/09/30 12:20:17;;;;;;;4.00;1.70;;;;;;;;;;5032780;28;20491;-57
2021/09/30 12:22:45;;;;;;;4.13;1.60;;;;;;;;;;5032608;28;20448;-58
2021/09/30 12:25:13;;;;;;;5.50;1.90;;;;;;;;;;5032737;28;21002;-58
2021/09/30 12:27:43;;;;;;;3.70;1.30;;;;;;;;;;5032493;28;20518;-57
2021/09/30 12:30:11;;;;;;;3.10;1.40;;;;;;;;;;5035885;28;21004;-58
2021/09/30 12:32:40;;;;;;;3.83;1.93;;;;;;;;;;5036813;28;20457;-57
2021/09/30 12:35:08;;;;;;;3.70;1.70;;;;;;;;;;5036563;28;20530;-57
2021/09/30 12:37:36;;;;;;;4.07;1.30;;;;;;;;;;5036096;28;21040;-57
2021/09/30 12:40:05;;;;;;;7.60;1.77;;;;;;;;;;5037009;28;20979;-57
2021/09/30 12:42:33;;;;;;;5.37;1.70;;;;;;;;;;5036202;28;20452;-57
2021/09/30 12:45:01;;;;;;;3.83;1.97;;;;;;;;;;5036615;28;20449;-57
2021/09/30 12:47:40;;;;;;;5.43;2.07;;;;;;;;;;5036493;28;20464;-57
2021/09/30 12:50:09;;;;;;;6.83;2.03;;;;;;;;;;5036429;28;20464;-57
2021/09/30 12:52:36;;;;;;;4.73;1.60;;;;;;;;;;5036273;28;20464;-57
2021/09/30 12:55:05;;;;;;;5.50;1.60;;;;;;;;;;5036212;28;20825;-58
2021/09/30 12:57:33;;;;;;;7.63;2.00;;;;;;;;;;5039994;28;20464;-57
2021/09/30 13:00:19;;;;;;;4.50;1.67;;;;;;;;;;5037413;28;20810;-58
2021/09/30 13:02:48;;;;;;;3.10;1.43;;;;;;;;;;5037002;28;20421;-57
2021/09/30 13:05:16;;;;;;;7.10;2.17;;;;;;;;;;5036139;28;20823;-58
2021/09/30 13:07:48;;;;;;;3.93;1.50;;;;;;;;;;5036242;28;20464;-57
2021/09/30 13:10:16;;;;;;;4.20;1.77;;;;;;;;;;5036206;28;20892;-57
2021/09/30 13:13:03;;;;;;;4.60;1.80;;;;;;;;;;5035939;28;20448;-57
2021/09/30 13:15:38;;;;;;;2.30;1.50;;;;;;;;;;5036085;28;20843;-58
2021/09/30 13:18:08;;;;;;;3.80;1.30;;;;;;;;;;5035722;28;20464;-58
2021/09/30 13:20:35;;;;;;;4.90;1.63;;;;;;;;;;5035562;28;20499;-58
2021/09/30 13:23:02;;;;;;;4.30;1.57;;;;;;;;;;5035993;28;20444;-57
2021/09/30 13:25:30;;;;;;;4.37;1.70;;;;;;;;;;5036025;28;20453;-58
2021/09/30 13:27:57;;;;;;;6.50;1.73;;;;;;;;;;5035627;28;20471;-57
2021/09/30 13:30:25;;;;;;;5.40;2.00;;;;;;;;;;5035303;28;20480;-58
2021/09/30 13:32:56;;;;;;;8.37;1.60;;;;;;;;;;5035670;28;20909;-57
2021/09/30 13:35:25;;;;;;;3.13;2.07;;;;;;;;;;5035800;28;20429;-57
2021/09/30 13:37:52;;;;;;;3.40;1.60;;;;;;;;;;5035307;28;20473;-57
2021/09/30 13:40:20;;;;;;;5.60;1.60;;;;;;;;;;5034821;28;20449;-58
2021/09/30 13:42:47;;;;;;;4.30;1.90;;;;;;;;;;5035501;28;20541;-57
2021/09/30 13:45:15;;;;;;;5.00;1.90;;;;;;;;;;5035102;28;21003;-59
2021/09/30 13:47:43;;;;;;;10.33;2.13;;;;;;;;;;5035289;28;20468;-56
2021/09/30 13:50:11;;;;;;;5.50;1.60;;;;;;;;;;5035185;28;20481;-58
2021/09/30 13:52:40;;;;;;;4.97;1.90;;;;;;;;;;5035744;28;20507;-57
2021/09/30 13:55:07;;;;;;;2.37;1.87;;;;;;;;;;5035067;28;20445;-58
2021/09/30 13:57:34;;;;;;;14.97;3.57;;;;;;;;;;5035534;28;20548;-57
2021/09/30 14:00:02;;;;;;;4.67;1.60;;;;;;;;;;5035303;28;20445;-57
2021/09/30 14:02:29;;;;;;;4.30;2.00;;;;;;;;;;5035231;28;20449;-58
2021/09/30 14:04:57;;;;;;;8.13;2.20;;;;;;;;;;5034795;28;20445;-58
2021/09/30 14:07:24;;;;;;;7.17;2.43;;;;;;;;;;5034931;28;20523;-59
2021/09/30 14:09:53;;;;;;;5.70;2.10;;;;;;;;;;5035010;28;20526;-59
2021/09/30 14:12:21;;;;;;;4.00;1.80;;;;;;;;;;5034917;28;20456;-57
2021/09/30 14:14:48;;;;;;;4.80;1.70;;;;;;;;;;5034671;28;20476;-58
2021/09/30 14:17:15;;;;;;;7.40;1.57;;;;;;;;;;5034737;28;20503;-57
2021/09/30 14:19:42;;;;;;;7.03;1.77;;;;;;;;;;5034939;28;20532;-57
2021/09/30 14:22:10;;;;;;;3.70;1.63;;;;;;;;;;5034958;28;20448;-58
2021/09/30 14:24:37;;;;;;;5.33;2.03;;;;;;;;;;5035397;28;20468;-57
2021/09/30 14:27:06;;;;;;;7.13;2.10;;;;;;;;;;5035138;28;21009;-58
2021/09/30 14:29:34;;;;;;;5.20;2.00;;;;;;;;;;5034178;28;21025;-58
2021/09/30 14:32:02;;;;;;;9.13;1.73;;;;;;;;;;5034779;28;20450;-58
2021/09/30 14:34:29;;;;;;;5.23;2.00;;;;;;;;;;5034263;28;20631;-58
2021/09/30 14:36:56;;;;;;;4.73;1.97;;;;;;;;;;5034805;28;20452;-59
2021/09/30 14:39:23;;;;;;;4.17;2.00;;;;;;;;;;5058935;22;20484;-60
2021/09/30 14:41:51;;;;;;;9.33;1.90;;;;;;;;;;5034237;28;20519;-59
2021/09/30 14:44:23;;;;;;;3.70;1.30;;;;;;;;;;5033577;28;20453;-59
2021/09/30 14:46:50;;;;;;;4.23;1.93;;;;;;;;;;5034005;28;20436;-59
2021/09/30 14:49:17;;;;;;;7.83;2.30;;;;;;;;;;5034025;28;20519;-59
2021/09/30 14:51:45;;;;;;;4.47;1.93;;;;;;;;;;5032884;28;20607;-59
2021/09/30 14:54:12;;;;;;;3.20;2.00;;;;;;;;;;5034007;28;20495;-60
2021/09/30 14:56:39;;;;;;;6.40;1.93;;;;;;;;;;5033295;28;20999;-60
2021/09/30 14:59:06;;;;;;;6.33;1.83;;;;;;;;;;5034574;28;20498;-60
2021/09/30 15:01:35;;;;;;;6.33;1.60;;;;;;;;;;5034446;28;20449;-60
2021/09/30 15:04:06;;;;;;;3.30;1.80;;;;;;;;;;5033631;28;20449;-58
2021/09/30 15:06:34;;;;;;;3.60;1.87;;;;;;;;;;5033459;28;20873;-59
2021/09/30 15:09:02;;;;;;;4.57;2.00;;;;;;;;;;5033532;28;20465;-61
2021/09/30 15:11:29;;;;;;;5.00;1.70;;;;;;;;;;5033350;28;20571;-60
2021/09/30 15:13:56;;;;;;;5.03;2.30;;;;;;;;;;5033488;28;20494;-60
2021/09/30 15:16:26;;;;;;;2.73;1.97;;;;;;;;;;5033262;28;20479;-60
2021/09/30 15:19:02;;;;;;;4.03;1.80;;;;;;;;;;5033891;28;20468;-60
2021/09/30 15:21:29;;;;;;;6.57;1.97;;;;;;;;;;5035384;28;20448;-60
2021/09/30 15:24:00;;;;;;;2.80;1.60;;;;;;;;;;5033232;28;20944;-60
2021/09/30 15:26:28;;;;;;;6.00;1.70;;;;;;;;;;5034210;28;20822;-61
2021/09/30 15:28:56;;;;;;;4.63;1.47;;;;;;;;;;5033168;28;20461;-60
2021/09/30 15:31:24;;;;;;;4.07;1.70;;;;;;;;;;5033292;28;20531;-59
2021/09/30 15:33:51;;;;;;;3.33;1.80;;;;;;;;;;5033197;28;20499;-60
2021/09/30 15:36:23;;;;;;;5.60;2.40;;;;;;;;;;5033881;28;20498;-61
2021/09/30 15:38:50;;;;;;;3.00;1.40;;;;;;;;;;5033209;28;20500;-60
2021/09/30 15:41:18;;;;;;;4.73;2.00;;;;;;;;;;5033571;28;20445;-60
2021/09/30 15:43:45;;;;;;;3.57;1.63;;;;;;;;;;5033278;28;20858;-60
2021/09/30 15:46:12;;;;;;;4.80;1.90;;;;;;;;;;5032886;28;20844;-60
2021/09/30 15:48:40;;;;;;;4.73;2.03;;;;;;;;;;5033327;28;20469;-59
2021/09/30 15:51:08;;;;;;;4.77;1.53;;;;;;;;;;5033111;28;21065;-60
2021/09/30 15:53:37;;;;;;;3.23;1.60;;;;;;;;;;5033191;28;20514;-60
2021/09/30 15:56:05;;;;;;;3.17;1.50;;;;;;;;;;5033359;28;20453;-59
2021/09/30 15:58:32;;;;;;;3.33;1.40;;;;;;;;;;5033210;28;20465;-60
2021/09/30 16:00:59;;;;;;;4.33;1.37;;;;;;;;;;5033033;28;20863;-60
2021/09/30 16:03:27;;;;;;;6.33;1.80;;;;;;;;;;5033121;28;20869;-60
2021/09/30 16:05:54;;;;;;;5.00;1.37;;;;;;;;;;5033419;28;20445;-61
2021/09/30 16:08:21;;;;;;;4.10;1.43;;;;;;;;;;5033255;28;20519;-60
2021/09/30 16:10:50;;;;;;;2.33;1.30;;;;;;;;;;5033367;28;20893;-61
2021/09/30 16:13:17;;;;;;;3.80;1.50;;;;;;;;;;5033246;28;20499;-61
2021/09/30 16:15:44;;;;;;;4.60;1.40;;;;;;;;;;5032945;28;20527;-59
2021/09/30 16:18:12;;;;;;;7.77;1.80;;;;;;;;;;5033153;28;20475;-60
2021/09/30 16:20:39;;;;;;;4.07;1.43;;;;;;;;;;5033230;28;20491;-60
2021/09/30 16:23:06;;;;;;;7.07;2.10;;;;;;;;;;5032837;28;20933;-60
2021/09/30 16:25:33;;;;;;;4.97;2.13;;;;;;;;;;5032646;28;20441;-60
2021/09/30 16:28:02;;;;;;;3.87;1.57;;;;;;;;;;5033376;28;20551;-61
2021/09/30 16:30:30;;;;;;;4.97;1.83;;;;;;;;;;5033634;28;20477;-60
2021/09/30 16:32:57;;;;;;;3.00;1.80;;;;;;;;;;5033202;28;20449;-59
2021/09/30 16:35:24;;;;;;;5.70;2.20;;;;;;;;;;5033046;28;20515;-60
2021/09/30 16:37:52;;;;;;;5.00;1.50;;;;;;;;;;5033106;28;20515;-60
2021/09/30 16:40:19;;;;;;;4.97;1.70;;;;;;;;;;5033151;28;20523;-60
2021/09/30 16:42:48;;;;;;;5.83;1.80;;;;;;;;;;5032749;28;20514;-60
2021/09/30 16:45:16;;;;;;;5.60;1.70;;;;;;;;;;5033094;28;20495;-60
2021/09/30 16:47:45;;;;;;;2.53;1.33;;;;;;;;;;5032678;28;20940;-59
2021/09/30 16:50:14;;;;;;;7.40;2.10;;;;;;;;;;5033014;28;20445;-60
2021/09/30 16:52:43;;;;;;;5.07;2.00;;;;;;;;;;5033124;28;20481;-60
2021/09/30 16:55:10;;;;;;;4.67;1.90;;;;;;;;;;5032672;28;20453;-61
2021/09/30 16:57:38;;;;;;;3.70;1.80;;;;;;;;;;5032830;28;20453;-62
2021/09/30 17:00:06;;;;;;;8.57;2.20;;;;;;;;;;5033187;28;20937;-60
2021/09/30 17:02:34;;;;;;;3.70;1.50;;;;;;;;;;5049434;28;20441;-62
2021/09/30 17:05:02;;;;;;;2.70;1.80;;;;;;;;;;5054994;28;20437;-61
2021/09/30 17:07:29;;;;;;;4.77;1.60;;;;;;;;;;5053647;28;20472;-62
2021/09/30 17:09:56;;;;;;;5.20;1.90;;;;;;;;;;5053476;28;20441;-60
2021/09/30 17:12:24;;;;;;;2.77;1.70;;;;;;;;;;5041255;28;20539;-60
2021/09/30 17:14:53;;;;;;;3.50;1.63;;;;;;;;;;5034993;28;20491;-60
2021/09/30 17:17:21;;;;;;;3.50;1.83;;;;;;;;;;5036313;28;20949;-60
2021/09/30 17:19:49;;;;;;;4.40;1.93;;;;;;;;;;5035785;28;20472;-60
2021/09/30 17:22:17;;;;;;;5.73;2.30;;;;;;;;;;5035977;28;20866;-60
2021/09/30 17:24:44;;;;;;;2.80;1.73;;;;;;;;;;5036170;28;20444;-60
2021/09/30 17:27:11;;;;;;;3.27;1.67;;;;;;;;;;5035796;28;20502;-60
2021/09/30 17:29:39;;;;;;;4.87;3.63;;;;;;;;;;5035828;28;20523;-60
2021/09/30 17:32:06;;;;;;;7.93;2.07;;;;;;;;;;5035853;28;20595;-60
2021/09/30 17:34:33;;;;;;;5.53;1.87;;;;;;;;;;5035838;28;20502;-60
2021/09/30 17:37:02;;;;;;;3.87;1.70;;;;;;;;;;5035372;28;20503;-60